Time;durP1;ratioP1;P1;durP2;ratioP2;P2;SDS_P1;SDS_P2;PMS_P1;PMS_P2;Temp;Humidity;BMP_temperature;BMP_pressure;BME280_temperature;BME280_humidity;BME280_pressure;Samples;Min_cycle;Max_cycle;Signal;HPM_P1;HPM_P2
2023/09/24 00:00:20;;;;;;;4.38;1.95;;;17.00;96.70;;;;;;5027087;28;20209;-80
2023/09/24 00:02:50;;;;;;;4.82;1.90;;;16.90;96.70;;;;;;5027182;28;20099;-80
2023/09/24 00:05:19;;;;;;;5.82;2.10;;;16.90;96.70;;;;;;5016393;28;20067;-81
2023/09/24 00:07:48;;;;;;;5.47;1.77;;;17.10;96.70;;;;;;5025469;28;20487;-81
2023/09/24 00:10:16;;;;;;;5.15;2.10;;;17.20;96.70;;;;;;5025805;28;20045;-83
2023/09/24 00:12:44;;;;;;;9.25;2.28;;;17.30;96.70;;;;;;5010437;28;20136;-83
2023/09/24 00:15:13;;;;;;;5.75;2.05;;;17.40;96.70;;;;;;5026600;28;20037;-81
2023/09/24 00:17:41;;;;;;;3.90;1.92;;;17.40;96.70;;;;;;5026505;28;20053;-81
2023/09/24 00:20:10;;;;;;;7.18;1.58;;;17.50;96.70;;;;;;5026901;28;20486;-81
2023/09/24 00:22:40;;;;;;;4.65;1.50;;;17.50;96.70;;;;;;5026250;28;20060;-80
2023/09/24 00:25:10;;;;;;;2.75;1.20;;;17.60;96.70;;;;;;5026647;28;20053;-81
2023/09/24 00:27:38;;;;;;;2.83;1.55;;;17.30;96.70;;;;;;5027917;28;20068;-81
2023/09/24 00:30:09;;;;;;;5.40;1.30;;;17.30;96.70;;;;;;5027996;28;20137;-81
2023/09/24 00:32:37;;;;;;;5.53;1.25;;;17.30;96.70;;;;;;5030667;28;20053;-81
2023/09/24 00:35:06;;;;;;;4.18;1.27;;;17.30;96.70;;;;;;5031565;28;20045;-81
2023/09/24 00:37:34;;;;;;;6.15;1.77;;;17.20;96.70;;;;;;5031798;28;20045;-80
2023/09/24 00:40:05;;;;;;;8.45;1.23;;;17.20;96.70;;;;;;5014037;28;20046;-80
2023/09/24 00:42:33;;;;;;;6.10;1.35;;;17.20;96.70;;;;;;5029960;28;20057;-81
2023/09/24 00:45:03;;;;;;;5.50;1.40;;;17.30;96.70;;;;;;5030235;28;20041;-81
2023/09/24 00:47:32;;;;;;;2.45;1.20;;;17.20;96.70;;;;;;5013515;28;20072;-80
2023/09/24 00:50:00;;;;;;;3.03;1.20;;;17.20;96.70;;;;;;5012673;28;20068;-79
2023/09/24 00:52:29;;;;;;;3.85;1.33;;;17.20;96.70;;;;;;5029030;28;20056;-79
2023/09/24 00:54:58;;;;;;;4.90;1.10;;;17.20;96.70;;;;;;5028729;28;20072;-80
2023/09/24 00:57:27;;;;;;;4.80;1.35;;;17.20;96.70;;;;;;5020595;28;20049;-80
2023/09/24 00:59:58;;;;;;;5.03;1.42;;;17.20;96.70;;;;;;5030260;28;20057;-79
2023/09/24 01:02:32;;;;;;;2.83;1.30;;;17.20;96.70;;;;;;5029851;28;20185;-79
2023/09/24 01:05:00;;;;;;;5.15;1.70;;;17.10;96.70;;;;;;5028981;28;20187;-80
2023/09/24 01:07:31;;;;;;;6.57;1.98;;;17.30;96.70;;;;;;5030123;28;20073;-79
2023/09/24 01:09:59;;;;;;;4.57;1.35;;;17.30;96.70;;;;;;5029370;28;20048;-80
2023/09/24 01:12:32;;;;;;;2.85;1.05;;;17.30;96.70;;;;;;5009262;28;20050;-80
2023/09/24 01:15:01;;;;;;;4.03;1.15;;;17.30;96.70;;;;;;5042081;28;20050;-80
2023/09/24 01:17:29;;;;;;;5.57;1.30;;;17.20;96.70;;;;;;5028391;28;20076;-80
2023/09/24 01:19:58;;;;;;;6.47;1.40;;;17.20;96.70;;;;;;5009080;28;20050;-80
2023/09/24 01:22:30;;;;;;;4.47;1.27;;;17.00;96.70;;;;;;5029516;28;20073;-80
2023/09/24 01:24:59;;;;;;;5.55;1.35;;;16.90;96.70;;;;;;5008768;28;20046;-79
2023/09/24 01:27:27;;;;;;;4.63;1.50;;;16.80;96.70;;;;;;5023817;28;20064;-79
2023/09/24 01:29:56;;;;;;;3.80;1.45;;;16.80;96.70;;;;;;5027406;28;20080;-80
2023/09/24 01:32:25;;;;;;;4.70;1.80;;;17.00;96.70;;;;;;5009603;28;20484;-80
2023/09/24 01:34:53;;;;;;;4.60;1.60;;;17.00;96.70;;;;;;5028404;28;20059;-80
2023/09/24 01:37:22;;;;;;;4.07;1.40;;;17.00;96.70;;;;;;5028801;28;20049;-79
2023/09/24 01:39:52;;;;;;;3.80;1.50;;;17.00;96.70;;;;;;5027093;28;20045;-79
2023/09/24 01:42:20;;;;;;;3.88;1.45;;;17.20;96.70;;;;;;5029263;28;20045;-79
2023/09/24 01:44:50;;;;;;;6.38;1.38;;;17.40;96.70;;;;;;5029275;28;20115;-80
2023/09/24 01:47:18;;;;;;;7.28;1.77;;;17.40;96.70;;;;;;5022810;28;20054;-79
2023/09/24 01:49:46;;;;;;;6.20;1.85;;;17.40;96.70;;;;;;5029286;28;20053;-79
2023/09/24 01:52:15;;;;;;;10.45;1.70;;;17.30;96.70;;;;;;5027449;28;20144;-79
2023/09/24 01:54:43;;;;;;;5.70;1.58;;;17.10;96.70;;;;;;5027399;28;20136;-79
2023/09/24 01:57:12;;;;;;;6.70;1.73;;;17.10;96.70;;;;;;5027043;28;20057;-79
2023/09/24 01:59:40;;;;;;;5.13;1.17;;;17.10;96.70;;;;;;5010304;28;20108;-79
2023/09/24 02:02:09;;;;;;;3.67;1.48;;;17.20;96.70;;;;;;5027283;28;20057;-79
2023/09/24 02:04:37;;;;;;;5.38;1.60;;;17.10;96.70;;;;;;5027368;28;20111;-79
2023/09/24 02:07:08;;;;;;;5.82;1.42;;;17.10;96.70;;;;;;5007429;28;20774;-79
2023/09/24 02:09:36;;;;;;;4.07;1.30;;;17.00;96.70;;;;;;5025079;28;20076;-80
2023/09/24 02:12:08;;;;;;;3.92;1.80;;;17.00;96.70;;;;;;5027549;28;20048;-80
2023/09/24 02:14:39;;;;;;;4.35;1.50;;;16.80;96.70;;;;;;5019587;28;20051;-79
2023/09/24 02:17:07;;;;;;;5.07;1.60;;;16.80;96.70;;;;;;5027173;28;20049;-80
2023/09/24 02:19:35;;;;;;;4.50;1.63;;;16.90;96.70;;;;;;5028720;28;20064;-80
2023/09/24 02:22:03;;;;;;;5.32;1.58;;;16.90;96.70;;;;;;5027303;28;20453;-80
2023/09/24 02:24:32;;;;;;;4.88;1.50;;;16.90;96.70;;;;;;5010015;28;20564;-80
2023/09/24 02:27:02;;;;;;;5.28;1.63;;;16.80;96.70;;;;;;5019098;28;20075;-80
2023/09/24 02:29:30;;;;;;;4.10;1.52;;;16.80;96.70;;;;;;5028944;28;20045;-79
2023/09/24 02:31:59;;;;;;;2.88;1.15;;;16.90;96.70;;;;;;5027464;28;20128;-80
2023/09/24 02:34:29;;;;;;;4.90;1.10;;;16.80;96.70;;;;;;5015245;28;20041;-80
2023/09/24 02:36:58;;;;;;;2.47;1.00;;;16.80;96.70;;;;;;5027869;28;20403;-80
2023/09/24 02:39:26;;;;;;;4.47;1.30;;;16.80;96.70;;;;;;5011786;28;20041;-80
2023/09/24 02:41:54;;;;;;;2.78;0.50;;;16.80;96.70;;;;;;5027995;28;20049;-80
2023/09/24 02:44:22;;;;;;;5.57;1.30;;;16.70;96.70;;;;;;5027650;28;20457;-80
2023/09/24 02:46:51;;;;;;;3.88;0.90;;;16.70;96.70;;;;;;5027619;28;20761;-80
2023/09/24 02:49:21;;;;;;;4.45;1.25;;;16.70;96.70;;;;;;5027503;28;20155;-83
2023/09/24 02:51:49;;;;;;;5.18;1.10;;;16.60;96.70;;;;;;5026949;28;20045;-82
2023/09/24 02:54:18;;;;;;;4.70;1.42;;;16.70;96.70;;;;;;5027452;28;20049;-82
2023/09/24 02:56:46;;;;;;;4.38;1.02;;;16.70;96.70;;;;;;5026425;28;20046;-82
2023/09/24 02:59:14;;;;;;;3.40;1.08;;;16.70;96.70;;;;;;5026646;28;20604;-83
2023/09/24 03:01:48;;;;;;;5.63;1.17;;;16.70;96.70;;;;;;5010591;28;20056;-82
2023/09/24 03:04:16;;;;;;;6.05;1.30;;;16.70;96.70;;;;;;5026418;28;20052;-82
2023/09/24 03:06:48;;;;;;;2.67;1.10;;;16.60;96.70;;;;;;5028287;28;20041;-83
2023/09/24 03:09:18;;;;;;;3.78;1.25;;;16.60;96.70;;;;;;5026758;28;20053;-83
2023/09/24 03:11:46;;;;;;;3.63;1.45;;;16.70;96.70;;;;;;5027383;28;20045;-82
2023/09/24 03:14:14;;;;;;;4.40;1.13;;;16.70;96.70;;;;;;5027057;28;20061;-83
2023/09/24 03:16:42;;;;;;;3.63;1.08;;;16.60;96.70;;;;;;5028406;28;20155;-82
2023/09/24 03:19:10;;;;;;;4.13;0.90;;;16.50;96.70;;;;;;5028290;28;20136;-83
2023/09/24 03:21:38;;;;;;;2.15;0.90;;;16.50;96.70;;;;;;5027097;28;20588;-83
2023/09/24 03:24:11;;;;;;;5.57;0.95;;;16.50;96.70;;;;;;5028156;28;20056;-82
2023/09/24 03:26:39;;;;;;;3.85;1.10;;;16.50;96.70;;;;;;5028304;28;20069;-83
2023/09/24 03:29:07;;;;;;;3.63;1.02;;;16.40;96.70;;;;;;5010550;28;20199;-83
2023/09/24 03:31:36;;;;;;;2.15;0.75;;;16.30;96.70;;;;;;5019003;28;20605;-80
2023/09/24 03:34:04;;;;;;;2.72;1.02;;;16.30;96.70;;;;;;5026279;28;20045;-82
2023/09/24 03:36:32;;;;;;;2.22;0.90;;;16.20;96.70;;;;;;5026586;28;20049;-82
2023/09/24 03:39:00;;;;;;;4.05;1.13;;;16.30;96.70;;;;;;5010433;28;20103;-82
2023/09/24 03:41:29;;;;;;;4.93;1.27;;;16.30;96.70;;;;;;5026131;28;20053;-82
2023/09/24 03:43:57;;;;;;;5.30;2.10;;;16.30;96.70;;;;;;5027850;28;20042;-82
2023/09/24 03:46:26;;;;;;;7.38;3.88;;;16.20;96.70;;;;;;5009727;28;20467;-81
2023/09/24 03:48:54;;;;;;;12.23;6.28;;;16.30;96.70;;;;;;5025599;28;20045;-81
2023/09/24 03:51:23;;;;;;;9.90;5.22;;;16.30;96.70;;;;;;5025548;28;20056;-81
2023/09/24 03:53:51;;;;;;;8.73;4.30;;;16.20;96.70;;;;;;5024997;28;20099;-81
2023/09/24 03:56:20;;;;;;;10.45;4.35;;;16.10;96.70;;;;;;5025220;28;20049;-81
2023/09/24 03:58:50;;;;;;;10.18;3.90;;;16.10;96.70;;;;;;5000596;28;20124;-82
2023/09/24 04:01:19;;;;;;;7.53;4.10;;;16.30;96.70;;;;;;5009940;28;20526;-81
2023/09/24 04:03:48;;;;;;;6.38;3.22;;;16.20;96.70;;;;;;5024997;28;20729;-81
2023/09/24 04:06:17;;;;;;;9.50;3.03;;;16.30;96.70;;;;;;5026734;28;20048;-81
2023/09/24 04:08:45;;;;;;;5.47;2.33;;;16.20;96.70;;;;;;5033719;28;20033;-81
2023/09/24 04:11:15;;;;;;;6.15;1.70;;;16.10;96.70;;;;;;5027121;28;20517;-81
2023/09/24 04:13:43;;;;;;;8.43;1.88;;;16.10;96.70;;;;;;5025575;28;20049;-81
2023/09/24 04:16:13;;;;;;;4.35;1.38;;;16.00;96.70;;;;;;5009091;28;20056;-81
2023/09/24 04:18:43;;;;;;;9.68;1.10;;;16.00;96.70;;;;;;5021209;28;20060;-82
2023/09/24 04:21:18;;;;;;;4.88;1.33;;;16.00;96.70;;;;;;5024024;28;20057;-82
2023/09/24 04:23:46;;;;;;;4.35;1.60;;;16.10;96.70;;;;;;5017975;28;20119;-81
2023/09/24 04:26:22;;;;;;;2.35;1.08;;;16.00;96.70;;;;;;5026099;28;20529;-81
2023/09/24 04:28:54;;;;;;;4.78;1.00;;;16.10;96.70;;;;;;5025636;28;20046;-82
2023/09/24 04:31:23;;;;;;;4.05;0.95;;;16.00;96.70;;;;;;5025721;28;20049;-81
2023/09/24 04:33:51;;;;;;;3.47;0.98;;;16.00;96.70;;;;;;5025164;28;20045;-82
2023/09/24 04:36:20;;;;;;;4.10;1.10;;;15.90;96.70;;;;;;5024787;28;20905;-80
2023/09/24 04:38:48;;;;;;;3.30;0.98;;;15.90;96.70;;;;;;5025066;28;20041;-81
2023/09/24 04:41:17;;;;;;;2.13;0.90;;;15.90;96.70;;;;;;5024494;28;20050;-81
2023/09/24 04:43:45;;;;;;;6.53;1.33;;;15.90;96.70;;;;;;5026025;28;20158;-81
2023/09/24 04:46:14;;;;;;;4.25;1.00;;;16.00;96.70;;;;;;5024013;28;20442;-81
2023/09/24 04:48:43;;;;;;;3.33;0.80;;;16.00;96.70;;;;;;5000087;28;20041;-81
2023/09/24 04:51:12;;;;;;;4.88;1.33;;;15.90;96.70;;;;;;5024695;28;20142;-81
2023/09/24 04:53:40;;;;;;;4.70;0.80;;;16.00;96.70;;;;;;5024173;28;20064;-82
2023/09/24 04:56:08;;;;;;;4.00;1.10;;;16.00;96.70;;;;;;5025622;28;20563;-82
2023/09/24 04:58:37;;;;;;;2.28;1.08;;;16.00;96.70;;;;;;5013502;28;20498;-81
2023/09/24 05:01:06;;;;;;;3.45;0.88;;;15.90;96.70;;;;;;5024117;28;20144;-81
2023/09/24 05:03:36;;;;;;;2.50;0.98;;;15.80;96.70;;;;;;5007731;28;20037;-81
2023/09/24 05:06:07;;;;;;;6.88;1.10;;;15.80;96.70;;;;;;5024793;28;20132;-81
2023/09/24 05:08:35;;;;;;;3.97;0.80;;;15.80;96.70;;;;;;5024258;28;20069;-81
2023/09/24 05:11:04;;;;;;;4.72;1.00;;;15.80;96.70;;;;;;5004860;28;20089;-81
2023/09/24 05:13:32;;;;;;;4.22;1.00;;;15.70;96.70;;;;;;5024190;28;20622;-82
2023/09/24 05:16:01;;;;;;;5.40;1.10;;;15.80;96.70;;;;;;5026945;28;20128;-81
2023/09/24 05:18:29;;;;;;;2.95;0.82;;;15.90;96.70;;;;;;5015835;28;20041;-81
2023/09/24 05:20:58;;;;;;;4.20;0.90;;;16.00;96.70;;;;;;5029930;28;20496;-81
2023/09/24 05:23:27;;;;;;;5.18;1.13;;;16.00;96.70;;;;;;5028619;28;20146;-81
2023/09/24 05:25:55;;;;;;;5.25;1.10;;;15.90;96.70;;;;;;5028920;28;20053;-81
2023/09/24 05:28:23;;;;;;;5.18;0.95;;;15.70;96.70;;;;;;5029478;28;20041;-81
2023/09/24 05:30:52;;;;;;;4.00;1.08;;;15.70;96.70;;;;;;5027601;28;20041;-82
2023/09/24 05:33:20;;;;;;;4.07;1.50;;;15.80;96.70;;;;;;5028127;28;20045;-81
2023/09/24 05:35:52;;;;;;;2.95;1.02;;;16.00;96.70;;;;;;5028908;28;20111;-81
2023/09/24 05:38:21;;;;;;;3.80;1.02;;;16.20;96.70;;;;;;5028587;28;20141;-81
2023/09/24 05:40:50;;;;;;;4.85;1.55;;;16.10;96.70;;;;;;5019360;28;20560;-81
2023/09/24 05:43:20;;;;;;;4.68;1.25;;;16.00;96.70;;;;;;5027592;28;20167;-81
2023/09/24 05:45:48;;;;;;;5.22;1.20;;;16.00;96.70;;;;;;5027452;28;20048;-81
2023/09/24 05:48:17;;;;;;;3.42;1.02;;;15.90;96.70;;;;;;5027262;28;20049;-81
2023/09/24 05:50:45;;;;;;;4.00;1.00;;;16.00;96.70;;;;;;5027005;28;20446;-81
2023/09/24 05:53:15;;;;;;;3.88;1.10;;;16.10;96.70;;;;;;5026988;28;20049;-82
2023/09/24 05:55:53;;;;;;;4.28;0.90;;;16.20;96.70;;;;;;5011797;28;20049;-82
2023/09/24 05:58:23;;;;;;;4.20;1.10;;;16.10;96.70;;;;;;5028779;28;20315;-81
2023/09/24 06:00:51;;;;;;;4.72;1.98;;;16.20;96.70;;;;;;5027779;28;20115;-82
2023/09/24 06:03:19;;;;;;;4.95;2.13;;;16.20;96.70;;;;;;5027764;28;20101;-81
2023/09/24 06:05:48;;;;;;;4.30;1.73;;;16.20;96.70;;;;;;5019446;28;20046;-81
2023/09/24 06:08:16;;;;;;;4.03;1.55;;;16.20;96.70;;;;;;5026741;28;20049;-82
2023/09/24 06:10:45;;;;;;;3.67;1.20;;;16.20;96.70;;;;;;5027101;28;20046;-81
2023/09/24 06:13:15;;;;;;;4.72;1.35;;;16.20;96.70;;;;;;5027081;28;20045;-81
2023/09/24 06:15:44;;;;;;;6.60;1.30;;;16.30;96.70;;;;;;5027812;28;20049;-81
2023/09/24 06:18:12;;;;;;;4.85;1.60;;;16.40;96.70;;;;;;5026791;28;20651;-81
2023/09/24 06:20:43;;;;;;;4.35;1.35;;;16.40;96.70;;;;;;5029533;28;20148;-81
2023/09/24 06:23:11;;;;;;;7.10;2.13;;;16.50;96.70;;;;;;5027138;28;20073;-82
2023/09/24 06:25:39;;;;;;;5.13;1.98;;;16.60;96.70;;;;;;5034346;28;20136;-80
2023/09/24 06:28:10;;;;;;;5.25;1.73;;;16.70;96.70;;;;;;5009855;28;20053;-81
2023/09/24 06:30:39;;;;;;;7.32;2.83;;;16.80;96.70;;;;;;5035034;28;20403;-81
2023/09/24 06:33:08;;;;;;;7.60;3.03;;;17.00;96.70;;;;;;5013402;28;20041;-81
2023/09/24 06:35:37;;;;;;;5.80;2.28;;;17.10;96.70;;;;;;5037650;28;20096;-81
2023/09/24 06:38:05;;;;;;;4.95;2.10;;;17.00;96.70;;;;;;5030150;28;20045;-88
2023/09/24 06:40:36;;;;;;;6.88;1.67;;;17.00;96.70;;;;;;5028177;28;20124;-80
2023/09/24 06:43:04;;;;;;;6.53;2.00;;;17.00;96.70;;;;;;5057571;28;20446;-80
2023/09/24 06:45:32;;;;;;;5.90;2.17;;;17.00;96.70;;;;;;5028068;28;20999;-79
2023/09/24 06:48:03;;;;;;;6.35;1.70;;;17.10;96.70;;;;;;5023940;28;20049;-79
2023/09/24 06:50:31;;;;;;;5.70;1.90;;;17.30;96.70;;;;;;5025693;28;20053;-80
2023/09/24 06:52:59;;;;;;;5.88;1.60;;;17.30;96.70;;;;;;5008641;28;20065;-80
2023/09/24 06:55:27;;;;;;;2.65;0.98;;;17.30;96.70;;;;;;5005253;28;20145;-81
2023/09/24 06:57:55;;;;;;;5.28;1.60;;;17.20;96.70;;;;;;5016469;28;20046;-80
2023/09/24 07:00:24;;;;;;;3.92;1.20;;;17.30;96.70;;;;;;5029382;28;20045;-82
2023/09/24 07:02:52;;;;;;;5.03;1.45;;;17.40;96.70;;;;;;5025452;28;20052;-81
2023/09/24 07:05:21;;;;;;;6.72;1.30;;;17.50;96.70;;;;;;5025988;28;20048;-79
2023/09/24 07:07:49;;;;;;;3.35;1.60;;;17.60;96.70;;;;;;5017699;28;20057;-82
2023/09/24 07:10:18;;;;;;;6.70;1.20;;;17.60;96.70;;;;;;5009340;28;20041;-82
2023/09/24 07:12:46;;;;;;;2.83;1.30;;;17.70;96.70;;;;;;5025461;28;20460;-82
2023/09/24 07:15:16;;;;;;;4.13;1.40;;;17.80;96.70;;;;;;5028286;28;20037;-81
2023/09/24 07:17:44;;;;;;;3.95;1.45;;;17.90;96.70;;;;;;5025210;28;20049;-82
2023/09/24 07:20:14;;;;;;;4.85;1.40;;;17.90;96.70;;;;;;5008810;28;20038;-81
2023/09/24 07:22:44;;;;;;;4.80;1.40;;;18.00;96.70;;;;;;5024524;28;20064;-81
2023/09/24 07:25:12;;;;;;;8.52;1.90;;;18.00;96.70;;;;;;5010280;28;20049;-81
2023/09/24 07:27:41;;;;;;;4.68;1.63;;;18.00;96.70;;;;;;5023277;28;20053;-81
2023/09/24 07:30:10;;;;;;;3.58;1.73;;;17.90;96.70;;;;;;5020964;28;20046;-80
2023/09/24 07:32:38;;;;;;;8.43;2.03;;;18.00;96.70;;;;;;5023003;28;20045;-79
2023/09/24 07:35:09;;;;;;;2.65;1.40;;;18.10;96.70;;;;;;5022293;28;20046;-79
2023/09/24 07:37:38;;;;;;;5.45;1.70;;;18.10;96.70;;;;;;5024427;28;20132;-78
2023/09/24 07:40:10;;;;;;;5.15;1.60;;;18.10;96.70;;;;;;5006368;28;20041;-80
2023/09/24 07:42:38;;;;;;;4.90;2.53;;;18.30;96.70;;;;;;5006384;28;20611;-79
2023/09/24 07:45:12;;;;;;;5.05;2.90;;;18.30;96.70;;;;;;5025169;28;20482;-81
2023/09/24 07:47:41;;;;;;;7.25;3.75;;;18.50;96.70;;;;;;5023025;28;20483;-81
2023/09/24 07:50:09;;;;;;;8.82;3.45;;;18.60;96.70;;;;;;5020361;28;20684;-79
2023/09/24 07:52:37;;;;;;;9.85;4.85;;;18.80;96.70;;;;;;5022821;28;20053;-79
2023/09/24 07:55:06;;;;;;;5.70;3.05;;;18.80;96.70;;;;;;5024969;28;20033;-80
2023/09/24 07:57:36;;;;;;;6.25;2.33;;;18.90;96.70;;;;;;5007166;28;20577;-80
2023/09/24 08:00:06;;;;;;;4.72;1.80;;;19.00;96.70;;;;;;5023146;28;20045;-80
2023/09/24 08:02:38;;;;;;;4.85;1.85;;;19.10;96.70;;;;;;5022770;28;20049;-80
2023/09/24 08:05:08;;;;;;;7.28;2.17;;;19.20;96.70;;;;;;5023784;28;20041;-81
2023/09/24 08:07:36;;;;;;;3.65;1.50;;;19.30;96.70;;;;;;5024196;28;20102;-80
2023/09/24 08:10:05;;;;;;;4.90;1.88;;;19.40;96.70;;;;;;5024327;28;20099;-80
2023/09/24 08:12:35;;;;;;;5.30;1.60;;;19.50;96.70;;;;;;5023477;28;20111;-79
2023/09/24 08:15:04;;;;;;;3.90;1.88;;;19.70;96.70;;;;;;5022179;28;20029;-80
2023/09/24 08:17:32;;;;;;;3.85;1.80;;;19.80;96.70;;;;;;5022429;28;20136;-80
2023/09/24 08:20:01;;;;;;;4.35;1.92;;;19.90;96.70;;;;;;5023855;28;20095;-83
2023/09/24 08:22:29;;;;;;;7.55;3.70;;;20.00;96.70;;;;;;5026102;28;20101;-83
2023/09/24 08:24:56;;;;;;;5.85;3.15;;;20.10;96.70;;;;;;5026117;28;20053;-84
2023/09/24 08:27:24;;;;;;;3.60;1.90;;;20.10;96.70;;;;;;5025567;28;20140;-84
2023/09/24 08:29:55;;;;;;;3.15;1.83;;;20.30;96.70;;;;;;5008897;28;20503;-83
2023/09/24 08:32:23;;;;;;;4.45;1.60;;;20.40;96.70;;;;;;5026057;28;20076;-83
2023/09/24 08:34:51;;;;;;;3.60;1.67;;;20.50;96.70;;;;;;5005845;28;20042;-83
2023/09/24 08:37:19;;;;;;;4.25;1.67;;;20.60;96.70;;;;;;5025015;28;20037;-83
2023/09/24 08:39:47;;;;;;;3.13;1.40;;;20.70;96.70;;;;;;5024353;28;20133;-83
2023/09/24 08:42:19;;;;;;;2.92;1.65;;;20.70;96.70;;;;;;5008405;28;20056;-83
2023/09/24 08:44:54;;;;;;;1.45;0.80;;;20.80;96.70;;;;;;5026121;28;20065;-83
2023/09/24 08:47:24;;;;;;;1.60;0.47;;;20.90;96.70;;;;;;5026232;28;20049;-83
2023/09/24 08:49:53;;;;;;;1.92;1.33;;;21.10;96.70;;;;;;5026835;28;20049;-83
2023/09/24 08:52:22;;;;;;;1.42;0.70;;;21.30;96.70;;;;;;5011112;28;20042;-83
2023/09/24 08:54:51;;;;;;;0.60;0.32;;;21.50;96.70;;;;;;5032021;28;20515;-84
2023/09/24 08:57:19;;;;;;;0.73;0.20;;;21.50;96.70;;;;;;5030049;28;20472;-84
2023/09/24 08:59:47;;;;;;;1.02;0.30;;;21.70;96.70;;;;;;5028159;28;20085;-84
2023/09/24 09:02:15;;;;;;;0.80;0.20;;;21.80;96.70;;;;;;5026797;28;20568;-80
2023/09/24 09:04:51;;;;;;;1.42;0.20;;;21.90;96.70;;;;;;5026286;28;20049;-80
2023/09/24 09:07:19;;;;;;;0.10;0.10;;;22.10;96.70;;;;;;5026448;28;20107;-80
2023/09/24 09:09:55;;;;;;;0.73;0.30;;;22.30;96.70;;;;;;5026737;28;20048;-80
2023/09/24 09:12:25;;;;;;;0.47;0.10;;;22.30;96.70;;;;;;5027068;28;20045;-80
2023/09/24 09:14:53;;;;;;;0.82;0.20;;;22.30;96.70;;;;;;5025864;28;20136;-80
2023/09/24 09:17:22;;;;;;;0.28;0.20;;;22.50;96.70;;;;;;5019654;28;20037;-80
2023/09/24 09:19:53;;;;;;;1.27;0.28;;;22.50;96.70;;;;;;5009025;28;20079;-82
2023/09/24 09:22:23;;;;;;;0.82;0.20;;;22.50;96.70;;;;;;5026274;28;20080;-81
2023/09/24 09:25:03;;;;;;;3.95;0.28;;;22.70;96.70;;;;;;5026907;28;20721;-82
2023/09/24 09:27:33;;;;;;;1.00;0.25;;;22.80;96.70;;;;;;5018635;28;20103;-79
2023/09/24 09:30:17;;;;;;;0.25;0.20;;;22.90;96.70;;;;;;5028533;28;20041;-79
2023/09/24 09:32:47;;;;;;;0.35;0.13;;;23.00;96.70;;;;;;5026945;28;20530;-81
2023/09/24 09:35:17;;;;;;;0.30;0.10;;;22.90;96.70;;;;;;5026023;28;20049;-80
2023/09/24 09:37:47;;;;;;;1.27;0.20;;;22.90;96.70;;;;;;5025293;28;20176;-79
2023/09/24 09:40:16;;;;;;;0.55;0.20;;;23.10;96.70;;;;;;5027208;28;20080;-79
2023/09/24 09:42:49;;;;;;;1.13;0.20;;;23.20;96.70;;;;;;5026123;28;20049;-78
2023/09/24 09:45:18;;;;;;;0.85;0.30;;;23.20;96.70;;;;;;5027518;28;20132;-79
2023/09/24 09:48:00;;;;;;;1.60;0.28;;;23.30;96.70;;;;;;5026547;28;20072;-80
2023/09/24 09:50:33;;;;;;;2.05;0.28;;;23.40;96.70;;;;;;5021481;28;20077;-79
2023/09/24 09:53:07;;;;;;;1.25;0.15;;;23.60;96.70;;;;;;5025304;28;20050;-79
2023/09/24 09:55:39;;;;;;;0.80;0.20;;;23.60;96.70;;;;;;5026942;28;20501;-79
2023/09/24 09:58:09;;;;;;;2.47;0.30;;;23.80;96.70;;;;;;5026858;28;20410;-78
2023/09/24 10:00:52;;;;;;;0.95;0.52;;;23.80;96.70;;;;;;5026278;28;20061;-85
2023/09/24 10:03:21;;;;;;;2.55;1.15;;;23.80;96.70;;;;;;5029825;28;20702;-84
2023/09/24 10:05:53;;;;;;;0.40;0.20;;;23.90;96.70;;;;;;5029651;28;20042;-86
2023/09/24 10:08:41;;;;;;;1.08;0.40;;;24.00;96.70;;;;;;5020080;28;20049;-84
2023/09/24 10:11:32;;;;;;;0.25;0.17;;;24.10;96.70;;;;;;5028580;28;20499;-84
2023/09/24 10:14:01;;;;;;;1.45;0.30;;;24.10;96.70;;;;;;5028820;28;20050;-84
2023/09/24 10:16:37;;;;;;;1.02;0.22;;;24.20;96.70;;;;;;5030749;28;20045;-85
2023/09/24 10:19:08;;;;;;;0.22;0.10;;;24.20;96.70;;;;;;5027574;28;20054;-79
2023/09/24 10:21:38;;;;;;;1.75;0.20;;;24.30;96.70;;;;;;5024900;28;20045;-79
2023/09/24 10:24:48;;;;;;;1.30;0.30;;;24.30;96.70;;;;;;5025390;28;20045;-80
2023/09/24 10:27:23;;;;;;;0.52;0.30;;;24.30;96.70;;;;;;5007997;28;20049;-81
2023/09/24 10:30:08;;;;;;;1.30;0.20;;;24.30;96.70;;;;;;5025962;28;20047;-80
2023/09/24 10:32:47;;;;;;;0.60;0.20;;;24.40;96.70;;;;;;5024674;28;20045;-81
2023/09/24 10:35:15;;;;;;;0.77;0.40;;;24.50;96.70;;;;;;5027472;28;20140;-81
2023/09/24 10:38:03;;;;;;;0.52;0.40;;;24.60;96.70;;;;;;5026776;28;20037;-81
2023/09/24 10:40:33;;;;;;;1.30;0.40;;;24.70;96.70;;;;;;5010799;28;20045;-83
2023/09/24 10:43:15;;;;;;;3.17;2.28;;;24.80;96.70;;;;;;5027604;28;20491;-84
2023/09/24 10:45:44;;;;;;;2.13;0.55;;;24.80;96.70;;;;;;5027210;28;20100;-83
2023/09/24 10:48:13;;;;;;;2.25;0.45;;;24.90;96.70;;;;;;5023587;28;20136;-82
2023/09/24 10:50:41;;;;;;;0.75;0.32;;;24.90;96.70;;;;;;5026584;28;20107;-85
2023/09/24 10:53:11;;;;;;;0.95;0.30;;;24.90;96.70;;;;;;5022748;28;20033;-83
2023/09/24 10:55:41;;;;;;;1.50;0.40;;;25.10;96.70;;;;;;5027822;28;20144;-84
2023/09/24 10:58:13;;;;;;;0.68;0.20;;;25.30;96.70;;;;;;5028016;28;20152;-85
2023/09/24 11:00:43;;;;;;;1.92;0.57;;;25.00;96.70;;;;;;5034076;28;20045;-84
2023/09/24 11:03:16;;;;;;;1.48;0.30;;;25.20;96.70;;;;;;5028123;28;20096;-82
2023/09/24 11:05:47;;;;;;;1.00;0.30;;;25.20;96.70;;;;;;5024974;28;20345;-83
2023/09/24 11:08:18;;;;;;;0.40;0.28;;;25.30;96.70;;;;;;5026784;28;20441;-84
2023/09/24 11:10:48;;;;;;;1.15;0.22;;;25.40;96.70;;;;;;5024189;28;20045;-81
2023/09/24 11:13:16;;;;;;;0.80;0.20;;;25.50;96.70;;;;;;5026512;28;20044;-83
2023/09/24 11:15:44;;;;;;;0.70;0.20;;;25.50;96.70;;;;;;5027083;28;20120;-83
2023/09/24 11:18:13;;;;;;;0.25;0.10;;;25.60;96.70;;;;;;5026241;28;20119;-82
2023/09/24 11:20:49;;;;;;;0.80;0.20;;;25.70;96.70;;;;;;5025306;28;20060;-83
2023/09/24 11:23:19;;;;;;;0.73;0.30;;;25.70;96.70;;;;;;5017330;28;21089;-83
2023/09/24 11:25:48;;;;;;;0.45;0.20;;;25.80;96.70;;;;;;5027046;28;20049;-83
2023/09/24 11:28:16;;;;;;;0.70;0.40;;;25.70;96.70;;;;;;5007443;28;20129;-81
2023/09/24 11:30:48;;;;;;;1.92;0.40;;;25.80;96.70;;;;;;5024216;28;20699;-80
2023/09/24 11:33:20;;;;;;;2.38;0.30;;;25.70;96.70;;;;;;5023751;28;20049;-82
2023/09/24 11:35:50;;;;;;;2.65;0.30;;;25.70;96.70;;;;;;5025886;28;20041;-84
2023/09/24 11:38:40;;;;;;;4.75;4.35;;;25.80;96.70;;;;;;5027133;28;20068;-83
2023/09/24 11:41:11;;;;;;;4.57;4.10;;;25.80;96.70;;;;;;5010178;28;20592;-84
2023/09/24 11:43:40;;;;;;;0.98;0.35;;;25.70;96.70;;;;;;5019475;28;20046;-83
2023/09/24 11:46:21;;;;;;;0.98;0.30;;;25.70;96.70;;;;;;5027185;28;20045;-84
2023/09/24 11:48:52;;;;;;;1.23;0.47;;;25.80;96.70;;;;;;5026633;28;20103;-83
2023/09/24 11:51:21;;;;;;;1.50;0.30;;;25.80;96.70;;;;;;5025000;28;20069;-81
2023/09/24 11:53:51;;;;;;;0.88;0.30;;;25.90;96.70;;;;;;5017662;28;20863;-81
2023/09/24 11:56:19;;;;;;;1.38;0.28;;;26.20;96.70;;;;;;5025090;28;20049;-79
2023/09/24 11:58:48;;;;;;;2.25;0.40;;;26.30;96.70;;;;;;5023784;28;20049;-80
2023/09/24 12:01:16;;;;;;;3.20;0.47;;;26.40;96.70;;;;;;5024398;28;20672;-77
2023/09/24 12:03:45;;;;;;;0.40;0.20;;;26.30;96.70;;;;;;5025095;28;20061;-80
2023/09/24 12:06:14;;;;;;;0.45;0.20;;;26.50;96.70;;;;;;4998983;28;20060;-80
2023/09/24 12:08:43;;;;;;;1.90;0.30;;;26.60;96.70;;;;;;5023519;28;20336;-80
2023/09/24 12:11:13;;;;;;;0.80;0.80;;;26.60;96.70;;;;;;5007974;28;20756;-80
2023/09/24 12:13:41;;;;;;;2.17;0.40;;;26.60;96.70;;;;;;5004374;28;20081;-80
2023/09/24 12:16:10;;;;;;;1.10;0.30;;;26.70;96.70;;;;;;5022385;28;20049;-78
2023/09/24 12:18:40;;;;;;;0.55;0.22;;;26.80;96.70;;;;;;5006747;28;20591;-78
2023/09/24 12:21:09;;;;;;;1.85;0.30;;;26.80;96.70;;;;;;5009061;28;20064;-79
2023/09/24 12:23:37;;;;;;;0.80;0.25;;;26.70;96.70;;;;;;5024536;28;20091;-81
2023/09/24 12:26:06;;;;;;;0.95;0.32;;;26.60;96.70;;;;;;5006614;28;20049;-81
2023/09/24 12:28:36;;;;;;;0.60;0.20;;;26.60;96.70;;;;;;5023429;28;20057;-79
2023/09/24 12:31:04;;;;;;;0.82;0.45;;;26.90;96.70;;;;;;5006889;28;20049;-80
2023/09/24 12:33:32;;;;;;;1.77;0.45;;;27.00;96.70;;;;;;5020050;28;20053;-78
2023/09/24 12:36:01;;;;;;;1.58;0.32;;;27.00;96.70;;;;;;5006674;28;20503;-78
2023/09/24 12:38:30;;;;;;;0.50;0.30;;;27.00;96.70;;;;;;5024196;28;20140;-78
2023/09/24 12:40:58;;;;;;;0.43;0.20;;;27.10;96.70;;;;;;5023807;28;20053;-79
2023/09/24 12:43:26;;;;;;;0.60;0.20;;;27.10;96.70;;;;;;5025418;28;20529;-78
2023/09/24 12:45:57;;;;;;;1.27;0.30;;;26.90;96.70;;;;;;5023399;28;20056;-80
2023/09/24 12:48:27;;;;;;;0.90;0.25;;;26.80;96.70;;;;;;5023236;28;20606;-80
2023/09/24 12:50:55;;;;;;;0.60;0.40;;;26.70;96.70;;;;;;5007321;28;20107;-80
2023/09/24 12:53:23;;;;;;;0.98;0.20;;;26.90;96.70;;;;;;5006178;28;20038;-79
2023/09/24 12:55:52;;;;;;;2.05;0.30;;;26.80;96.70;;;;;;5024574;28;20041;-80
2023/09/24 12:58:20;;;;;;;1.55;0.20;;;26.80;96.70;;;;;;5024176;28;20041;-80